sensor_id;sensor_type;location;lat;lon;timestamp;temperature;humidity
2993;DHT22;1506;48.932;9.478;2024-02-26T00:01:49;8.20;99.90
2993;DHT22;1506;48.932;9.478;2024-02-26T00:04:16;8.30;99.90
2993;DHT22;1506;48.932;9.478;2024-02-26T00:06:43;8.20;99.90
2993;DHT22;1506;48.932;9.478;2024-02-26T00:09:10;8.20;99.90
2993;DHT22;1506;48.932;9.478;2024-02-26T00:11:37;8.20;99.90
2993;DHT22;1506;48.932;9.478;2024-02-26T00:14:04;8.30;99.90
2993;DHT22;1506;48.932;9.478;2024-02-26T00:16:31;8.30;99.90
2993;DHT22;1506;48.932;9.478;2024-02-26T00:18:58;8.30;99.90
2993;DHT22;1506;48.932;9.478;2024-02-26T00:21:26;7.90;99.90
2993;DHT22;1506;48.932;9.478;2024-02-26T00:23:53;8.10;99.90
2993;DHT22;1506;48.932;9.478;2024-02-26T00:26:20;8.10;99.90
2993;DHT22;1506;48.932;9.478;2024-02-26T00:28:47;8.10;99.90
2993;DHT22;1506;48.932;9.478;2024-02-26T00:31:14;8.10;99.90
2993;DHT22;1506;48.932;9.478;2024-02-26T00:33:41;8.00;99.90
2993;DHT22;1506;48.932;9.478;2024-02-26T00:36:09;8.00;99.90
2993;DHT22;1506;48.932;9.478;2024-02-26T00:38:36;8.20;99.90
2993;DHT22;1506;48.932;9.478;2024-02-26T00:41:03;8.00;99.90
2993;DHT22;1506;48.932;9.478;2024-02-26T00:43:30;8.00;99.90
2993;DHT22;1506;48.932;9.478;2024-02-26T00:45:56;8.10;99.90
2993;DHT22;1506;48.932;9.478;2024-02-26T00:48:23;8.10;99.90
2993;DHT22;1506;48.932;9.478;2024-02-26T00:50:54;8.00;99.90
2993;DHT22;1506;48.932;9.478;2024-02-26T00:53:21;8.00;99.90
2993;DHT22;1506;48.932;9.478;2024-02-26T00:55:48;7.70;99.90
2993;DHT22;1506;48.932;9.478;2024-02-26T00:58:15;7.60;99.90
2993;DHT22;1506;48.932;9.478;2024-02-26T01:00:42;7.90;99.90
2993;DHT22;1506;48.932;9.478;2024-02-26T01:03:09;7.70;99.90
2993;DHT22;1506;48.932;9.478;2024-02-26T01:05:37;8.00;99.90
2993;DHT22;1506;48.932;9.478;2024-02-26T01:08:04;7.50;99.90
2993;DHT22;1506;48.932;9.478;2024-02-26T01:10:32;7.50;99.90
2993;DHT22;1506;48.932;9.478;2024-02-26T01:12:59;7.60;99.90
2993;DHT22;1506;48.932;9.478;2024-02-26T01:15:26;7.60;99.90
2993;DHT22;1506;48.932;9.478;2024-02-26T01:17:53;7.60;99.90
2993;DHT22;1506;48.932;9.478;2024-02-26T01:20:20;7.70;99.90
2993;DHT22;1506;48.932;9.478;2024-02-26T01:22:47;7.40;99.90
2993;DHT22;1506;48.932;9.478;2024-02-26T01:25:14;7.70;99.90
2993;DHT22;1506;48.932;9.478;2024-02-26T01:27:42;7.50;99.90
2993;DHT22;1506;48.932;9.478;2024-02-26T01:30:11;7.60;99.90
2993;DHT22;1506;48.932;9.478;2024-02-26T01:32:38;7.70;99.90
2993;DHT22;1506;48.932;9.478;2024-02-26T01:35:05;7.80;75.10
2993;DHT22;1506;48.932;9.478;2024-02-26T01:37:36;7.80;60.70
2993;DHT22;1506;48.932;9.478;2024-02-26T01:40:03;7.90;53.70
2993;DHT22;1506;48.932;9.478;2024-02-26T01:42:31;8.00;15.40
2993;DHT22;1506;48.932;9.478;2024-02-26T01:44:59;8.30;1.00
2993;DHT22;1506;48.932;9.478;2024-02-26T01:47:26;8.20;1.60
2993;DHT22;1506;48.932;9.478;2024-02-26T01:49:54;8.20;20.60
2993;DHT22;1506;48.932;9.478;2024-02-26T01:52:21;8.20;98.00
2993;DHT22;1506;48.932;9.478;2024-02-26T01:54:48;8.10;99.90
2993;DHT22;1506;48.932;9.478;2024-02-26T01:57:16;8.10;99.90
2993;DHT22;1506;48.932;9.478;2024-02-26T01:59:44;8.00;99.90
2993;DHT22;1506;48.932;9.478;2024-02-26T02:02:11;7.90;1.00
2993;DHT22;1506;48.932;9.478;2024-02-26T02:04:39;7.70;99.90
2993;DHT22;1506;48.932;9.478;2024-02-26T02:07:06;7.80;99.90
2993;DHT22;1506;48.932;9.478;2024-02-26T02:09:33;7.30;1.00
2993;DHT22;1506;48.932;9.478;2024-02-26T02:12:00;7.20;1.00
2993;DHT22;1506;48.932;9.478;2024-02-26T02:14:27;7.20;99.90
2993;DHT22;1506;48.932;9.478;2024-02-26T02:16:54;7.30;1.00
2993;DHT22;1506;48.932;9.478;2024-02-26T02:19:21;7.00;99.90
2993;DHT22;1506;48.932;9.478;2024-02-26T02:21:48;7.00;1.00
2993;DHT22;1506;48.932;9.478;2024-02-26T02:24:15;7.10;1.00
2993;DHT22;1506;48.932;9.478;2024-02-26T02:26:42;7.10;1.00
2993;DHT22;1506;48.932;9.478;2024-02-26T02:29:09;7.20;1.00
2993;DHT22;1506;48.932;9.478;2024-02-26T02:31:36;7.40;98.70
2993;DHT22;1506;48.932;9.478;2024-02-26T02:34:03;7.20;99.90
2993;DHT22;1506;48.932;9.478;2024-02-26T02:36:30;7.20;99.90
2993;DHT22;1506;48.932;9.478;2024-02-26T02:38:58;7.30;99.90
2993;DHT22;1506;48.932;9.478;2024-02-26T02:41:25;7.20;99.90
2993;DHT22;1506;48.932;9.478;2024-02-26T02:43:53;7.30;1.00
2993;DHT22;1506;48.932;9.478;2024-02-26T02:46:20;7.10;1.00
2993;DHT22;1506;48.932;9.478;2024-02-26T02:48:47;6.90;99.90
2993;DHT22;1506;48.932;9.478;2024-02-26T02:51:14;6.70;1.00
2993;DHT22;1506;48.932;9.478;2024-02-26T02:53:41;6.90;99.90
2993;DHT22;1506;48.932;9.478;2024-02-26T02:56:08;6.80;1.00
2993;DHT22;1506;48.932;9.478;2024-02-26T02:58:35;6.90;1.00
2993;DHT22;1506;48.932;9.478;2024-02-26T03:01:02;6.80;1.00
2993;DHT22;1506;48.932;9.478;2024-02-26T03:03:30;6.90;3.30
2993;DHT22;1506;48.932;9.478;2024-02-26T03:05:57;7.00;1.00
2993;DHT22;1506;48.932;9.478;2024-02-26T03:08:24;7.00;1.00
2993;DHT22;1506;48.932;9.478;2024-02-26T03:10:52;7.10;1.00
2993;DHT22;1506;48.932;9.478;2024-02-26T03:13:20;7.00;1.00
2993;DHT22;1506;48.932;9.478;2024-02-26T03:15:47;7.00;99.90
2993;DHT22;1506;48.932;9.478;2024-02-26T03:18:14;7.00;1.00
2993;DHT22;1506;48.932;9.478;2024-02-26T03:20:41;7.10;1.00
2993;DHT22;1506;48.932;9.478;2024-02-26T03:23:08;7.20;99.90
2993;DHT22;1506;48.932;9.478;2024-02-26T03:25:38;7.10;1.00
2993;DHT22;1506;48.932;9.478;2024-02-26T03:28:05;7.10;99.90
2993;DHT22;1506;48.932;9.478;2024-02-26T03:30:33;7.20;1.00
2993;DHT22;1506;48.932;9.478;2024-02-26T03:33:01;7.20;1.00
2993;DHT22;1506;48.932;9.478;2024-02-26T03:35:29;7.00;1.00
2993;DHT22;1506;48.932;9.478;2024-02-26T03:37:56;6.90;99.90
2993;DHT22;1506;48.932;9.478;2024-02-26T03:40:23;6.90;99.90
2993;DHT22;1506;48.932;9.478;2024-02-26T03:42:51;7.00;1.00
2993;DHT22;1506;48.932;9.478;2024-02-26T03:45:19;6.80;1.00
2993;DHT22;1506;48.932;9.478;2024-02-26T03:47:46;7.00;16.40
2993;DHT22;1506;48.932;9.478;2024-02-26T03:50:13;6.60;1.00
2993;DHT22;1506;48.932;9.478;2024-02-26T03:52:40;6.70;1.00
2993;DHT22;1506;48.932;9.478;2024-02-26T03:55:07;6.80;1.00
2993;DHT22;1506;48.932;9.478;2024-02-26T03:57:35;6.80;1.00
2993;DHT22;1506;48.932;9.478;2024-02-26T04:00:02;6.70;1.00
2993;DHT22;1506;48.932;9.478;2024-02-26T04:02:36;6.50;99.90
2993;DHT22;1506;48.932;9.478;2024-02-26T04:05:03;6.00;1.00
2993;DHT22;1506;48.932;9.478;2024-02-26T04:07:30;5.70;1.00
2993;DHT22;1506;48.932;9.478;2024-02-26T04:09:57;6.00;99.90
2993;DHT22;1506;48.932;9.478;2024-02-26T04:12:24;5.90;99.90
2993;DHT22;1506;48.932;9.478;2024-02-26T04:14:51;6.10;1.00
2993;DHT22;1506;48.932;9.478;2024-02-26T04:17:18;5.90;1.00
2993;DHT22;1506;48.932;9.478;2024-02-26T04:19:45;5.60;1.00
2993;DHT22;1506;48.932;9.478;2024-02-26T04:22:12;5.50;16.40
2993;DHT22;1506;48.932;9.478;2024-02-26T04:24:39;5.60;1.00
2993;DHT22;1506;48.932;9.478;2024-02-26T04:27:06;6.00;1.00
2993;DHT22;1506;48.932;9.478;2024-02-26T04:29:33;5.90;1.00
2993;DHT22;1506;48.932;9.478;2024-02-26T04:31:59;6.00;1.00
2993;DHT22;1506;48.932;9.478;2024-02-26T04:34:26;6.10;1.00
2993;DHT22;1506;48.932;9.478;2024-02-26T04:36:53;6.20;1.00
2993;DHT22;1506;48.932;9.478;2024-02-26T04:39:20;6.10;1.00
2993;DHT22;1506;48.932;9.478;2024-02-26T04:41:47;6.00;24.30
2993;DHT22;1506;48.932;9.478;2024-02-26T04:44:14;5.90;58.50
2993;DHT22;1506;48.932;9.478;2024-02-26T04:46:42;5.90;83.50
2993;DHT22;1506;48.932;9.478;2024-02-26T04:49:09;5.90;98.50
2993;DHT22;1506;48.932;9.478;2024-02-26T04:51:36;6.10;99.90
2993;DHT22;1506;48.932;9.478;2024-02-26T04:54:03;6.20;99.90
2993;DHT22;1506;48.932;9.478;2024-02-26T04:56:30;5.90;99.90
2993;DHT22;1506;48.932;9.478;2024-02-26T04:58:57;5.90;99.90
2993;DHT22;1506;48.932;9.478;2024-02-26T05:01:24;5.80;99.90
2993;DHT22;1506;48.932;9.478;2024-02-26T05:03:51;5.90;99.90
2993;DHT22;1506;48.932;9.478;2024-02-26T05:06:19;5.80;99.90
2993;DHT22;1506;48.932;9.478;2024-02-26T05:08:47;5.80;99.90
2993;DHT22;1506;48.932;9.478;2024-02-26T05:11:13;5.70;99.90
2993;DHT22;1506;48.932;9.478;2024-02-26T05:13:40;5.90;99.90
2993;DHT22;1506;48.932;9.478;2024-02-26T05:16:08;5.80;99.90
2993;DHT22;1506;48.932;9.478;2024-02-26T05:18:34;5.80;99.90
2993;DHT22;1506;48.932;9.478;2024-02-26T05:21:02;5.90;99.90
2993;DHT22;1506;48.932;9.478;2024-02-26T05:23:30;6.00;99.90
2993;DHT22;1506;48.932;9.478;2024-02-26T05:25:57;6.30;99.90
2993;DHT22;1506;48.932;9.478;2024-02-26T05:28:24;6.10;99.90
2993;DHT22;1506;48.932;9.478;2024-02-26T05:30:51;6.30;99.90
2993;DHT22;1506;48.932;9.478;2024-02-26T05:33:18;6.30;99.90
2993;DHT22;1506;48.932;9.478;2024-02-26T05:35:45;6.30;99.90
2993;DHT22;1506;48.932;9.478;2024-02-26T05:38:12;6.60;99.90
2993;DHT22;1506;48.932;9.478;2024-02-26T05:40:39;6.70;99.90
2993;DHT22;1506;48.932;9.478;2024-02-26T05:43:06;6.50;99.90
2993;DHT22;1506;48.932;9.478;2024-02-26T05:45:33;6.50;99.90
2993;DHT22;1506;48.932;9.478;2024-02-26T05:48:00;6.50;99.90
2993;DHT22;1506;48.932;9.478;2024-02-26T05:50:27;6.60;99.90
2993;DHT22;1506;48.932;9.478;2024-02-26T05:52:54;6.60;99.90
2993;DHT22;1506;48.932;9.478;2024-02-26T05:55:21;6.60;99.90
2993;DHT22;1506;48.932;9.478;2024-02-26T05:57:48;6.70;99.90
2993;DHT22;1506;48.932;9.478;2024-02-26T06:00:16;6.70;99.90
2993;DHT22;1506;48.932;9.478;2024-02-26T06:02:44;6.80;99.90
2993;DHT22;1506;48.932;9.478;2024-02-26T06:05:11;6.80;99.90
2993;DHT22;1506;48.932;9.478;2024-02-26T06:07:38;6.80;99.90
2993;DHT22;1506;48.932;9.478;2024-02-26T06:10:05;6.80;99.90
2993;DHT22;1506;48.932;9.478;2024-02-26T06:12:34;6.70;99.90
2993;DHT22;1506;48.932;9.478;2024-02-26T06:15:02;6.80;99.90
2993;DHT22;1506;48.932;9.478;2024-02-26T06:17:29;6.50;99.90
2993;DHT22;1506;48.932;9.478;2024-02-26T06:19:56;6.40;99.90
2993;DHT22;1506;48.932;9.478;2024-02-26T06:22:23;6.30;99.90
2993;DHT22;1506;48.932;9.478;2024-02-26T06:24:50;6.40;99.90
2993;DHT22;1506;48.932;9.478;2024-02-26T06:27:17;6.30;99.90
2993;DHT22;1506;48.932;9.478;2024-02-26T06:29:44;6.40;99.90
2993;DHT22;1506;48.932;9.478;2024-02-26T06:32:11;6.40;73.40
2993;DHT22;1506;48.932;9.478;2024-02-26T06:34:37;6.60;22.10
2993;DHT22;1506;48.932;9.478;2024-02-26T06:37:05;6.50;58.70
2993;DHT22;1506;48.932;9.478;2024-02-26T06:39:32;6.50;98.40
2993;DHT22;1506;48.932;9.478;2024-02-26T06:41:59;6.50;99.90
2993;DHT22;1506;48.932;9.478;2024-02-26T06:44:29;6.60;99.90
2993;DHT22;1506;48.932;9.478;2024-02-26T06:46:58;6.30;99.90
2993;DHT22;1506;48.932;9.478;2024-02-26T06:49:26;6.20;99.90
2993;DHT22;1506;48.932;9.478;2024-02-26T06:51:54;5.90;99.90
2993;DHT22;1506;48.932;9.478;2024-02-26T06:54:21;6.00;99.90
2993;DHT22;1506;48.932;9.478;2024-02-26T06:56:48;6.00;99.90
2993;DHT22;1506;48.932;9.478;2024-02-26T06:59:15;5.60;99.90
2993;DHT22;1506;48.932;9.478;2024-02-26T07:01:42;5.70;99.90
2993;DHT22;1506;48.932;9.478;2024-02-26T07:04:09;5.60;99.90
2993;DHT22;1506;48.932;9.478;2024-02-26T07:06:37;5.80;99.90
2993;DHT22;1506;48.932;9.478;2024-02-26T07:09:05;6.00;99.90
2993;DHT22;1506;48.932;9.478;2024-02-26T07:11:32;6.40;99.90
2993;DHT22;1506;48.932;9.478;2024-02-26T07:13:59;6.30;99.90
2993;DHT22;1506;48.932;9.478;2024-02-26T07:16:27;6.50;99.90
2993;DHT22;1506;48.932;9.478;2024-02-26T07:18:54;6.60;99.90
2993;DHT22;1506;48.932;9.478;2024-02-26T07:21:21;6.60;99.90
2993;DHT22;1506;48.932;9.478;2024-02-26T07:23:48;6.70;99.90
2993;DHT22;1506;48.932;9.478;2024-02-26T07:26:15;6.70;99.90
2993;DHT22;1506;48.932;9.478;2024-02-26T07:28:44;6.70;99.90
2993;DHT22;1506;48.932;9.478;2024-02-26T07:31:10;6.90;99.90
2993;DHT22;1506;48.932;9.478;2024-02-26T07:33:37;6.70;99.90
2993;DHT22;1506;48.932;9.478;2024-02-26T07:36:04;6.80;99.90
2993;DHT22;1506;48.932;9.478;2024-02-26T07:38:31;6.80;99.90
2993;DHT22;1506;48.932;9.478;2024-02-26T07:41:09;6.70;99.90
2993;DHT22;1506;48.932;9.478;2024-02-26T07:43:36;7.00;99.90
2993;DHT22;1506;48.932;9.478;2024-02-26T07:46:03;6.90;99.90
2993;DHT22;1506;48.932;9.478;2024-02-26T07:48:30;7.00;99.90
2993;DHT22;1506;48.932;9.478;2024-02-26T07:50:57;7.20;99.90
2993;DHT22;1506;48.932;9.478;2024-02-26T07:53:27;7.30;99.90
2993;DHT22;1506;48.932;9.478;2024-02-26T07:55:53;7.40;99.90
2993;DHT22;1506;48.932;9.478;2024-02-26T07:58:20;7.40;99.90
2993;DHT22;1506;48.932;9.478;2024-02-26T08:00:47;7.40;99.90
2993;DHT22;1506;48.932;9.478;2024-02-26T08:03:15;7.40;99.90
2993;DHT22;1506;48.932;9.478;2024-02-26T08:05:43;7.40;99.90
2993;DHT22;1506;48.932;9.478;2024-02-26T08:08:10;7.60;99.90
2993;DHT22;1506;48.932;9.478;2024-02-26T08:10:37;7.70;99.90
2993;DHT22;1506;48.932;9.478;2024-02-26T08:13:04;7.70;99.90
2993;DHT22;1506;48.932;9.478;2024-02-26T08:15:34;7.70;99.90
2993;DHT22;1506;48.932;9.478;2024-02-26T08:18:01;7.60;99.90
2993;DHT22;1506;48.932;9.478;2024-02-26T08:20:31;7.30;99.90
2993;DHT22;1506;48.932;9.478;2024-02-26T08:22:58;7.60;99.90
2993;DHT22;1506;48.932;9.478;2024-02-26T08:25:25;7.50;99.90
2993;DHT22;1506;48.932;9.478;2024-02-26T08:27:52;7.60;99.90
2993;DHT22;1506;48.932;9.478;2024-02-26T08:30:19;7.60;99.90
2993;DHT22;1506;48.932;9.478;2024-02-26T08:32:47;7.70;99.90
2993;DHT22;1506;48.932;9.478;2024-02-26T08:35:18;7.60;99.90
2993;DHT22;1506;48.932;9.478;2024-02-26T08:37:45;7.40;99.90
2993;DHT22;1506;48.932;9.478;2024-02-26T08:40:13;7.20;99.90
2993;DHT22;1506;48.932;9.478;2024-02-26T08:42:40;7.30;99.90
2993;DHT22;1506;48.932;9.478;2024-02-26T08:45:07;7.40;99.90
2993;DHT22;1506;48.932;9.478;2024-02-26T08:47:34;7.60;99.90
2993;DHT22;1506;48.932;9.478;2024-02-26T08:50:01;7.80;99.90
2993;DHT22;1506;48.932;9.478;2024-02-26T08:52:28;7.80;99.90
2993;DHT22;1506;48.932;9.478;2024-02-26T08:54:55;7.80;99.90
2993;DHT22;1506;48.932;9.478;2024-02-26T08:57:22;7.60;99.90
2993;DHT22;1506;48.932;9.478;2024-02-26T08:59:49;7.70;99.90
2993;DHT22;1506;48.932;9.478;2024-02-26T09:02:16;8.00;99.90
2993;DHT22;1506;48.932;9.478;2024-02-26T09:04:43;8.30;99.90
2993;DHT22;1506;48.932;9.478;2024-02-26T09:07:10;8.70;99.90
2993;DHT22;1506;48.932;9.478;2024-02-26T09:09:37;8.60;99.90
2993;DHT22;1506;48.932;9.478;2024-02-26T09:12:04;8.50;99.90
2993;DHT22;1506;48.932;9.478;2024-02-26T09:14:31;8.50;99.90
2993;DHT22;1506;48.932;9.478;2024-02-26T09:16:58;8.80;99.90
2993;DHT22;1506;48.932;9.478;2024-02-26T09:19:26;9.10;99.90
2993;DHT22;1506;48.932;9.478;2024-02-26T09:21:55;9.70;99.90
2993;DHT22;1506;48.932;9.478;2024-02-26T09:24:24;9.50;99.90
2993;DHT22;1506;48.932;9.478;2024-02-26T09:26:52;9.70;88.20
2993;DHT22;1506;48.932;9.478;2024-02-26T09:29:19;10.10;69.80
2993;DHT22;1506;48.932;9.478;2024-02-26T09:31:46;10.30;59.50
2993;DHT22;1506;48.932;9.478;2024-02-26T09:34:16;10.40;38.00
2993;DHT22;1506;48.932;9.478;2024-02-26T09:36:43;10.50;1.00
2993;DHT22;1506;48.932;9.478;2024-02-26T09:39:10;10.60;1.00
2993;DHT22;1506;48.932;9.478;2024-02-26T09:41:39;10.60;1.00
2993;DHT22;1506;48.932;9.478;2024-02-26T09:44:06;10.70;1.00
2993;DHT22;1506;48.932;9.478;2024-02-26T09:46:34;10.60;1.00
2993;DHT22;1506;48.932;9.478;2024-02-26T09:49:01;10.70;99.90
2993;DHT22;1506;48.932;9.478;2024-02-26T09:51:28;11.00;99.90
2993;DHT22;1506;48.932;9.478;2024-02-26T09:53:56;10.80;99.90
2993;DHT22;1506;48.932;9.478;2024-02-26T09:56:26;11.00;99.90
2993;DHT22;1506;48.932;9.478;2024-02-26T09:58:54;10.80;99.90
2993;DHT22;1506;48.932;9.478;2024-02-26T10:01:22;10.30;99.90
2993;DHT22;1506;48.932;9.478;2024-02-26T10:03:54;10.00;1.00
2993;DHT22;1506;48.932;9.478;2024-02-26T10:06:22;10.00;1.00
2993;DHT22;1506;48.932;9.478;2024-02-26T10:08:49;9.70;99.90
2993;DHT22;1506;48.932;9.478;2024-02-26T10:11:16;9.80;99.90
2993;DHT22;1506;48.932;9.478;2024-02-26T10:13:43;9.80;99.90
2993;DHT22;1506;48.932;9.478;2024-02-26T10:16:10;9.90;99.90
2993;DHT22;1506;48.932;9.478;2024-02-26T10:18:50;10.10;21.60
2993;DHT22;1506;48.932;9.478;2024-02-26T10:21:25;10.20;1.00
2993;DHT22;1506;48.932;9.478;2024-02-26T10:23:53;10.30;1.00
2993;DHT22;1506;48.932;9.478;2024-02-26T10:26:21;10.30;1.00
2993;DHT22;1506;48.932;9.478;2024-02-26T10:28:49;10.30;99.90
2993;DHT22;1506;48.932;9.478;2024-02-26T10:31:21;10.30;99.90
2993;DHT22;1506;48.932;9.478;2024-02-26T10:33:48;10.30;1.00
2993;DHT22;1506;48.932;9.478;2024-02-26T10:36:16;10.40;1.00
2993;DHT22;1506;48.932;9.478;2024-02-26T10:38:43;10.50;99.90
2993;DHT22;1506;48.932;9.478;2024-02-26T10:41:13;10.70;99.90
2993;DHT22;1506;48.932;9.478;2024-02-26T10:43:41;11.00;99.90
2993;DHT22;1506;48.932;9.478;2024-02-26T10:46:08;11.20;1.00
2993;DHT22;1506;48.932;9.478;2024-02-26T10:48:36;11.70;99.90
2993;DHT22;1506;48.932;9.478;2024-02-26T10:51:04;12.30;99.90
2993;DHT22;1506;48.932;9.478;2024-02-26T10:53:31;13.20;94.60
2993;DHT22;1506;48.932;9.478;2024-02-26T10:56:03;14.10;1.00
2993;DHT22;1506;48.932;9.478;2024-02-26T10:58:31;14.10;99.90
2993;DHT22;1506;48.932;9.478;2024-02-26T11:00:58;13.90;99.90
2993;DHT22;1506;48.932;9.478;2024-02-26T11:03:26;13.70;99.90
2993;DHT22;1506;48.932;9.478;2024-02-26T11:05:53;14.20;99.90
2993;DHT22;1506;48.932;9.478;2024-02-26T11:08:21;14.60;99.90
2993;DHT22;1506;48.932;9.478;2024-02-26T11:10:48;14.70;99.90
2993;DHT22;1506;48.932;9.478;2024-02-26T11:13:17;14.50;99.40
2993;DHT22;1506;48.932;9.478;2024-02-26T11:15:46;14.50;99.90
2993;DHT22;1506;48.932;9.478;2024-02-26T11:18:17;14.40;99.90
2993;DHT22;1506;48.932;9.478;2024-02-26T11:20:46;14.30;95.40
2993;DHT22;1506;48.932;9.478;2024-02-26T11:23:14;14.60;93.60
2993;DHT22;1506;48.932;9.478;2024-02-26T11:25:42;15.10;99.90
2993;DHT22;1506;48.932;9.478;2024-02-26T11:28:10;15.70;41.90
2993;DHT22;1506;48.932;9.478;2024-02-26T11:30:39;16.10;1.00
2993;DHT22;1506;48.932;9.478;2024-02-26T11:33:08;15.80;1.00
2993;DHT22;1506;48.932;9.478;2024-02-26T11:35:36;15.60;1.00
2993;DHT22;1506;48.932;9.478;2024-02-26T11:38:03;15.60;1.00
2993;DHT22;1506;48.932;9.478;2024-02-26T11:40:32;15.70;1.00
2993;DHT22;1506;48.932;9.478;2024-02-26T11:42:59;16.30;1.00
2993;DHT22;1506;48.932;9.478;2024-02-26T11:48:16;15.10;1.00
2993;DHT22;1506;48.932;9.478;2024-02-26T11:58:41;14.50;1.00
2993;DHT22;1506;48.932;9.478;2024-02-26T12:03:54;14.10;1.00
2993;DHT22;1506;48.932;9.478;2024-02-26T12:06:21;13.90;1.00
2993;DHT22;1506;48.932;9.478;2024-02-26T12:08:48;14.00;1.00
2993;DHT22;1506;48.932;9.478;2024-02-26T12:11:15;14.00;1.00
2993;DHT22;1506;48.932;9.478;2024-02-26T12:13:45;13.90;1.00
2993;DHT22;1506;48.932;9.478;2024-02-26T12:16:13;13.80;1.00
2993;DHT22;1506;48.932;9.478;2024-02-26T12:19:01;14.10;10.50
2993;DHT22;1506;48.932;9.478;2024-02-26T12:21:29;14.20;1.00
2993;DHT22;1506;48.932;9.478;2024-02-26T12:23:56;14.50;21.00
2993;DHT22;1506;48.932;9.478;2024-02-26T12:26:33;15.00;30.00
2993;DHT22;1506;48.932;9.478;2024-02-26T12:29:00;15.50;31.90
2993;DHT22;1506;48.932;9.478;2024-02-26T12:31:27;16.00;36.50
2993;DHT22;1506;48.932;9.478;2024-02-26T12:33:55;16.40;30.30
2993;DHT22;1506;48.932;9.478;2024-02-26T12:36:22;16.60;1.00
2993;DHT22;1506;48.932;9.478;2024-02-26T12:38:53;16.80;1.00
2993;DHT22;1506;48.932;9.478;2024-02-26T12:41:20;16.80;1.00
2993;DHT22;1506;48.932;9.478;2024-02-26T12:43:47;17.00;1.00
2993;DHT22;1506;48.932;9.478;2024-02-26T12:46:16;16.90;1.00
2993;DHT22;1506;48.932;9.478;2024-02-26T12:48:43;16.70;1.00
2993;DHT22;1506;48.932;9.478;2024-02-26T12:51:12;16.60;1.00
2993;DHT22;1506;48.932;9.478;2024-02-26T12:53:40;17.10;1.00
2993;DHT22;1506;48.932;9.478;2024-02-26T12:56:07;17.20;1.00
2993;DHT22;1506;48.932;9.478;2024-02-26T12:58:36;16.80;1.00
2993;DHT22;1506;48.932;9.478;2024-02-26T13:01:05;16.40;1.00
2993;DHT22;1506;48.932;9.478;2024-02-26T13:03:35;15.90;1.00
2993;DHT22;1506;48.932;9.478;2024-02-26T13:06:02;15.40;1.00
2993;DHT22;1506;48.932;9.478;2024-02-26T13:08:31;15.20;1.00
2993;DHT22;1506;48.932;9.478;2024-02-26T13:10:58;15.40;1.00
2993;DHT22;1506;48.932;9.478;2024-02-26T13:13:25;15.70;1.00
2993;DHT22;1506;48.932;9.478;2024-02-26T13:16:02;16.10;1.00
2993;DHT22;1506;48.932;9.478;2024-02-26T13:18:30;16.60;1.00
2993;DHT22;1506;48.932;9.478;2024-02-26T13:21:08;16.70;1.00
2993;DHT22;1506;48.932;9.478;2024-02-26T13:23:36;16.90;1.00
2993;DHT22;1506;48.932;9.478;2024-02-26T13:26:03;17.10;1.00
2993;DHT22;1506;48.932;9.478;2024-02-26T13:28:30;17.30;1.00
2993;DHT22;1506;48.932;9.478;2024-02-26T13:30:57;17.30;1.00
2993;DHT22;1506;48.932;9.478;2024-02-26T13:33:29;16.70;1.00
2993;DHT22;1506;48.932;9.478;2024-02-26T13:35:57;15.70;1.00
2993;DHT22;1506;48.932;9.478;2024-02-26T13:38:24;14.70;1.00
2993;DHT22;1506;48.932;9.478;2024-02-26T13:40:52;14.30;1.00
2993;DHT22;1506;48.932;9.478;2024-02-26T13:43:19;14.10;1.00
2993;DHT22;1506;48.932;9.478;2024-02-26T13:45:46;14.00;1.00
2993;DHT22;1506;48.932;9.478;2024-02-26T13:48:14;13.90;1.00
2993;DHT22;1506;48.932;9.478;2024-02-26T13:50:41;13.90;39.20
2993;DHT22;1506;48.932;9.478;2024-02-26T13:53:10;14.30;48.40
2993;DHT22;1506;48.932;9.478;2024-02-26T13:55:38;14.30;16.70
2993;DHT22;1506;48.932;9.478;2024-02-26T13:58:06;14.20;1.00
2993;DHT22;1506;48.932;9.478;2024-02-26T14:00:33;14.10;1.00
2993;DHT22;1506;48.932;9.478;2024-02-26T14:03:02;13.90;1.00
2993;DHT22;1506;48.932;9.478;2024-02-26T14:05:30;13.80;59.70
2993;DHT22;1506;48.932;9.478;2024-02-26T14:07:57;13.80;67.60
2993;DHT22;1506;48.932;9.478;2024-02-26T14:10:24;13.80;33.50
2993;DHT22;1506;48.932;9.478;2024-02-26T14:12:51;13.90;66.10
2993;DHT22;1506;48.932;9.478;2024-02-26T14:15:18;13.90;3.40
2993;DHT22;1506;48.932;9.478;2024-02-26T14:17:45;13.80;1.00
2993;DHT22;1506;48.932;9.478;2024-02-26T14:20:20;13.80;8.10
2993;DHT22;1506;48.932;9.478;2024-02-26T14:22:51;13.90;10.10
2993;DHT22;1506;48.932;9.478;2024-02-26T14:25:20;14.00;28.30
2993;DHT22;1506;48.932;9.478;2024-02-26T14:27:47;14.10;25.00
2993;DHT22;1506;48.932;9.478;2024-02-26T14:30:14;14.10;2.10
2993;DHT22;1506;48.932;9.478;2024-02-26T14:32:42;14.00;1.00
2993;DHT22;1506;48.932;9.478;2024-02-26T14:35:09;14.00;2.40
2993;DHT22;1506;48.932;9.478;2024-02-26T14:37:43;14.00;1.00
2993;DHT22;1506;48.932;9.478;2024-02-26T14:40:14;13.90;1.00
2993;DHT22;1506;48.932;9.478;2024-02-26T14:42:41;13.90;1.30
2993;DHT22;1506;48.932;9.478;2024-02-26T14:45:10;13.80;1.00
2993;DHT22;1506;48.932;9.478;2024-02-26T14:47:38;13.70;1.00
2993;DHT22;1506;48.932;9.478;2024-02-26T14:50:05;13.60;1.00
2993;DHT22;1506;48.932;9.478;2024-02-26T14:52:32;13.50;1.00
2993;DHT22;1506;48.932;9.478;2024-02-26T14:54:59;13.50;1.00
2993;DHT22;1506;48.932;9.478;2024-02-26T14:57:26;13.40;4.30
2993;DHT22;1506;48.932;9.478;2024-02-26T14:59:53;13.50;39.80
2993;DHT22;1506;48.932;9.478;2024-02-26T15:02:20;13.50;61.80
2993;DHT22;1506;48.932;9.478;2024-02-26T15:04:47;13.40;1.00
2993;DHT22;1506;48.932;9.478;2024-02-26T15:07:15;13.20;1.00
2993;DHT22;1506;48.932;9.478;2024-02-26T15:09:45;13.20;1.00
2993;DHT22;1506;48.932;9.478;2024-02-26T15:12:12;13.10;1.00
2993;DHT22;1506;48.932;9.478;2024-02-26T15:14:39;13.20;1.00
2993;DHT22;1506;48.932;9.478;2024-02-26T15:17:06;13.10;1.00
2993;DHT22;1506;48.932;9.478;2024-02-26T15:19:37;13.00;1.00
2993;DHT22;1506;48.932;9.478;2024-02-26T15:22:04;12.90;1.00
2993;DHT22;1506;48.932;9.478;2024-02-26T15:24:32;12.90;1.00
2993;DHT22;1506;48.932;9.478;2024-02-26T15:26:59;12.80;1.00
2993;DHT22;1506;48.932;9.478;2024-02-26T15:29:26;12.70;1.00
2993;DHT22;1506;48.932;9.478;2024-02-26T15:31:53;12.60;1.00
2993;DHT22;1506;48.932;9.478;2024-02-26T15:34:20;12.50;1.00
2993;DHT22;1506;48.932;9.478;2024-02-26T15:36:47;12.50;1.00
2993;DHT22;1506;48.932;9.478;2024-02-26T15:39:14;12.40;1.00
2993;DHT22;1506;48.932;9.478;2024-02-26T15:41:41;12.30;1.00
2993;DHT22;1506;48.932;9.478;2024-02-26T15:44:08;12.20;1.00
2993;DHT22;1506;48.932;9.478;2024-02-26T15:46:41;12.10;1.00
2993;DHT22;1506;48.932;9.478;2024-02-26T15:49:08;12.00;1.00
2993;DHT22;1506;48.932;9.478;2024-02-26T15:51:40;11.90;1.00
2993;DHT22;1506;48.932;9.478;2024-02-26T15:54:07;11.90;1.00
2993;DHT22;1506;48.932;9.478;2024-02-26T15:56:34;11.80;1.00
2993;DHT22;1506;48.932;9.478;2024-02-26T15:59:02;11.70;1.00
2993;DHT22;1506;48.932;9.478;2024-02-26T16:01:29;11.90;1.00
2993;DHT22;1506;48.932;9.478;2024-02-26T16:03:58;11.60;1.00
2993;DHT22;1506;48.932;9.478;2024-02-26T16:06:27;11.60;1.00
2993;DHT22;1506;48.932;9.478;2024-02-26T16:08:55;11.50;1.00
2993;DHT22;1506;48.932;9.478;2024-02-26T16:11:22;11.40;1.00
2993;DHT22;1506;48.932;9.478;2024-02-26T16:13:50;11.40;1.00
2993;DHT22;1506;48.932;9.478;2024-02-26T16:16:21;11.30;1.00
2993;DHT22;1506;48.932;9.478;2024-02-26T16:18:53;11.30;1.00
2993;DHT22;1506;48.932;9.478;2024-02-26T16:21:20;11.30;1.00
2993;DHT22;1506;48.932;9.478;2024-02-26T16:23:48;11.20;1.00
2993;DHT22;1506;48.932;9.478;2024-02-26T16:26:15;11.20;1.00
2993;DHT22;1506;48.932;9.478;2024-02-26T16:28:42;11.20;1.00
2993;DHT22;1506;48.932;9.478;2024-02-26T16:31:09;11.20;1.00
2993;DHT22;1506;48.932;9.478;2024-02-26T16:33:36;11.10;1.00